METAR Data
IDs: Format: Raw Decoded Include TAF

Data at: 0159 UTC 20 Jan 2022

KEIK 200155Z AUTO 10004KT 3SM BR OVC007 M07/M07 A3032 RMK AO2 T10671075
KEIK 200135Z AUTO 09004KT 4SM BR OVC007 M07/M07 A3033 RMK AO2 T10671075
KEIK 200115Z AUTO 10004KT 3SM BR OVC007 M07/M07 A3031 RMK AO2 T10671075
KEIK 200055Z AUTO 09005KT 3SM BR OVC007 M07/M07 A3031 RMK AO2 T10671075
KEIK 200035Z AUTO 10006KT 3SM BR OVC007 M07/M07 A3030 RMK AO2 T10661074
KEIK 200015Z AUTO 08004KT 3SM BR OVC007 M07/M07 A3030 RMK AO2 T10671075
KEIK 192355Z AUTO 08005KT 2SM BR OVC007 M07/M07 A3030 RMK AO2 T10671075 11051 21067
KEIK 192335Z AUTO 08005KT 3SM BR OVC007 M07/M07 A3029 RMK AO2 T10661075
KEIK 192315Z AUTO 06007KT 4SM BR OVC007 M07/M07 A3029 RMK AO2 T10661075
KEIK 192255Z AUTO 07006KT 5SM BR OVC007 M06/M07 A3029 RMK AO2 T10651074
KEIK 192235Z AUTO 11005KT 10SM OVC007 M06/M07 A3027 RMK AO2 T10651073
KEIK 192215Z AUTO 10006KT 5SM BR OVC007 M06/M07 A3027 RMK AO2 T10651074
KEIK 192155Z AUTO 09005KT 5SM BR OVC007 M06/M07 A3026 RMK AO2 T10621071
KEIK 192135Z AUTO 08007KT 4SM BR OVC007 M06/M07 A3026 RMK AO2 T10621071
KEIK 192115Z AUTO 09007KT 3SM BR OVC007 M06/M07 A3026 RMK AO2 T10621071
KEIK 192055Z AUTO 10007KT 3SM BR OVC007 M06/M07 A3026 RMK AO2 T10611070
KEIK 192035Z AUTO 08007KT 2SM BR OVC007 M06/M07 A3026 RMK AO2 T10601070
KEIK 192015Z AUTO 07006KT 2SM -SN OVC007 M05/M06 A3026 RMK AO2 T10551065
KEIK 191955Z AUTO 06005KT 1 3/4SM -SN OVC007 M05/M06 A3026 RMK AO2 T10551062
KEIK 191935Z AUTO 07005KT 1 1/2SM -SN OVC009 M05/M06 A3026 RMK AO2 T10551063
KEIK 191915Z AUTO 07006KT 1 3/4SM -SN OVC007 M05/M06 A3027 RMK AO2 T10551062
KEIK 191855Z AUTO 08003KT 2SM BR OVC007 M05/M06 A3027 RMK AO2 T10541061
KEIK 191835Z AUTO 06007KT 2 1/2SM BR OVC007 M05/M06 A3027 RMK AO2 T10541061
KEIK 191815Z AUTO 07007KT 2SM BR OVC007 M05/M06 A3027 RMK AO2 T10511059
KEIK 191755Z AUTO 08008KT 2SM -SN OVC005 M05/M06 A3027 RMK AO2 T10521059 11025 21052
KEIK 191735Z AUTO 07008KT 1 3/4SM UP OVC005 M05/M06 A3027 RMK AO2 T10511057
KEIK 191715Z AUTO 07008KT 2SM BR OVC005 M05/M06 A3026 RMK AO2 T10521059
KEIK 191655Z AUTO 08007KT 2SM BR OVC005 M05/M05 A3024 RMK AO2 T10501055
KEIK 191635Z AUTO 07009KT 1 3/4SM BR OVC005 M04/M05 A3024 RMK AO2 T10451052
KEIK 191615Z AUTO 08006KT 1 3/4SM BR OVC005 M04/M04 A3022 RMK AO2 T10361043
KEIK 191555Z AUTO 09005KT 1 1/2SM BR OVC005 M04/M04 A3021 RMK AO2 T10361043
KEIK 191535Z AUTO 10005KT 1 1/2SM BR OVC005 M03/M04 A3020 RMK AO2 T10351042
KEIK 191515Z AUTO 10003KT 1 1/2SM BR OVC005 M03/M04 A3019 RMK AO2 T10351041
KEIK 191455Z AUTO 09003KT 1 1/2SM BR OVC005 M03/M04 A3017 RMK AO2 T10351041
KEIK 191435Z AUTO 09003KT 3SM BR OVC005 M04/M04 A3016 RMK AO2 T10361042
KEIK 191415Z AUTO 10005KT 2 1/2SM BR OVC003 M03/M04 A3015 RMK AO2 T10351042
KEIK 191355Z AUTO 11006KT 2 1/2SM BR OVC003 M03/M04 A3014 RMK AO2 T10321040
KEIK 191335Z AUTO 11006KT 2 1/2SM BR OVC003 M03/M04 A3014 RMK AO2 T10311038
KEIK 191315Z AUTO 10004KT 2SM BR OVC003 M03/M04 A3013 RMK AO2 T10321040
KEIK 191255Z AUTO 09006KT 2 1/2SM BR OVC003 M03/M04 A3012 RMK AO2 T10301039
KEIK 191235Z AUTO 12006KT 4SM BR OVC005 M03/M04 A3011 RMK AO2 T10271037
KEIK 191215Z AUTO 10004KT 7SM OVC007 M02/M04 A3011 RMK AO2 T10251036
KEIK 191155Z AUTO 11007KT 10SM OVC007 M02/M04 A3010 RMK AO2 T10251036 11002 21040
KEIK 191135Z AUTO 11005KT 10SM OVC007 M02/M03 A3011 RMK AO2 T10231035
KEIK 191115Z AUTO 09005KT 10SM OVC007 M02/M03 A3011 RMK AO2 T10221035
KEIK 191055Z AUTO 10006KT 10SM OVC007 M02/M03 A3011 RMK AO2 T10221035
KEIK 191035Z AUTO 08004KT 10SM OVC007 M02/M03 A3011 RMK AO2 T10221035
KEIK 191015Z AUTO 06005KT 10SM OVC007 M02/M03 A3011 RMK AO2 T10211035
KEIK 190955Z AUTO 04004KT 10SM OVC009 M02/M03 A3011 RMK AO2 T10211035
KEIK 190935Z AUTO 04006KT 10SM OVC009 M02/M03 A3011 RMK AO2 T10201035
KEIK 190915Z AUTO 04007KT 10SM OVC009 M02/M04 A3009 RMK AO2 T10201036
KEIK 190855Z AUTO 03007KT 10SM OVC011 M02/M04 A3009 RMK AO2 T10181036
KEIK 190835Z AUTO 01010KT 10SM SCT013 M02/M04 A3008 RMK AO2 T10221042
KEIK 190815Z AUTO 35008KT 10SM CLR M02/M04 A3005 RMK AO2 T10171040
KEIK 190755Z AUTO 33006KT 10SM CLR M02/M04 A3006 RMK AO2 T10191044
KEIK 190735Z AUTO 34004KT 10SM CLR M01/M05 A3003 RMK AO2 T10151048
KEIK 190715Z AUTO 02007KT 10SM CLR 00/M05 A3002 RMK AO2 T10041047
KEIK 190655Z AUTO 02006KT 10SM CLR M03/M07 A3001 RMK AO2 T10311070
KEIK 190635Z AUTO 00000KT 10SM CLR M04/M07 A2999 RMK AO2 T10371067
KEIK 190615Z AUTO 00000KT 10SM CLR M03/M07 A2999 RMK AO2 T10291067
KEIK 190555Z AUTO 00000KT 10SM CLR M03/M07 A2998 RMK AO2 T10331066 10060 21033 400811033
KEIK 190535Z AUTO 00000KT 10SM CLR M02/M07 A2997 RMK AO2 T10241072
KEIK 190515Z AUTO 00000KT 10SM CLR M02/M07 A2996 RMK AO2 T10171071
KEIK 190455Z AUTO 00000KT 10SM CLR M01/M07 A2997 RMK AO2 T10121072
KEIK 190435Z AUTO 00000KT 10SM SCT110 00/M07 A2997 RMK AO2 T10021075
KEIK 190415Z AUTO 22006KT 10SM SCT110 00/M08 A2996 RMK AO2 T10011076
KEIK 190355Z AUTO 19003KT 10SM CLR M01/M07 A2996 RMK AO2 T10081070
KEIK 190335Z AUTO 00000KT 10SM CLR M01/M07 A2995 RMK AO2 T10151066
KEIK 190315Z AUTO 00000KT 10SM CLR 00/M07 A2995 RMK AO2 T10031066
KEIK 190255Z AUTO 00000KT 10SM CLR 00/M06 A2994 RMK AO2 T00021065
KEIK 190235Z AUTO 00000KT 10SM CLR 01/M06 A2994 RMK AO2 T00071063
KEIK 190215Z AUTO 19003KT 10SM SCT120 01/M06 A2994 RMK AO2 T00111062
KEIK 190155Z AUTO 14003KT 10SM SCT120 02/M07 A2993 RMK AO2 T00231066 PWINO
KEIK 190135Z AUTO 28005KT 10SM CLR 03/M07 A2992 RMK AO2 T00341067 PWINO
KEIK 190115Z AUTO 29009KT 10SM CLR 03/M07 A2991 RMK AO2 T00301072 PWINO
KEIK 190055Z AUTO 00000KT 10SM CLR 04/M09 A2988 RMK AO2 T00441091 PWINO
KEIK 190035Z AUTO 00000KT 10SM SCT120 05/M09 A2987 RMK AO2 T00481091 PWINO
KEIK 190015Z AUTO 07004KT 10SM BKN120 06/M09 A2986 RMK AO2 T00601095 PWINO
KEIK 182355Z AUTO 02005KT 10SM SCT120 04/M06 A2986 RMK AO2 T00381058 10081 20026 PWINO
KEIK 182335Z AUTO 00000KT 10SM SCT120 04/M05 A2984 RMK AO2 T00371053 PWINO
KEIK 182315Z AUTO 21003KT 10SM CLR 04/M05 A2983 RMK AO2 T00421055 PWINO
KEIK 182255Z AUTO 05004KT 10SM CLR 05/M05 A2982 RMK AO2 T00461054 PWINO
KEIK 182235Z AUTO 00000KT 10SM CLR 06/M06 A2981 RMK AO2 T00561059 PWINO
KEIK 182215Z AUTO 00000KT 10SM CLR 06/M05 A2981 RMK AO2 T00611055 PWINO
KEIK 182155Z AUTO 00000KT 10SM CLR 06/M05 A2980 RMK AO2 T00621053 PWINO
KEIK 182135Z AUTO 00000KT 10SM CLR 07/M05 A2980 RMK AO2 T00651046 PWINO
KEIK 182115Z AUTO 00000KT 10SM CLR 07/M07 A2980 RMK AO2 T00701067 PWINO
KEIK 182055Z AUTO 00000KT 10SM CLR 08/M07 A2980 RMK AO2 T00751066 PWINO
KEIK 182035Z AUTO 29003KT 10SM CLR 08/M07 A2980 RMK AO2 T00811074 PWINO
KEIK 182015Z AUTO 00000KT 10SM CLR 07/M06 A2980 RMK AO2 T00721060 PWINO
KEIK 181955Z AUTO 21003KT 10SM CLR 07/M08 A2981 RMK AO2 T00711080 PWINO
KEIK 181935Z AUTO 25003KT 10SM CLR 07/M07 A2981 RMK AO2 T00651072 PWINO
KEIK 181915Z AUTO 24005KT 10SM CLR 06/M05 A2982 RMK AO2 T00561055 PWINO
KEIK 181855Z AUTO 00000KT 10SM CLR 06/M08 A2982 RMK AO2 T00621078 PWINO
KEIK 181835Z AUTO 10003KT 10SM CLR 04/M04 A2984 RMK AO2 T00351043
KEIK 181815Z AUTO 18003KT 10SM CLR 03/M04 A2985 RMK AO2 T00321044
KEIK 181755Z AUTO 00000KT 10SM CLR 03/M04 A2985 RMK AO2 T00281042 10036 21012
KEIK 181735Z AUTO 00000KT 10SM CLR 03/M05 A2986 RMK AO2 T00301051
KEIK 181715Z AUTO 00000KT 10SM CLR 03/M06 A2986 RMK AO2 T00321059
KEIK 181655Z AUTO 20005KT 10SM CLR 02/M05 A2986 RMK AO2 T00211049
KEIK 181635Z AUTO 15004KT 10SM CLR 01/M04 A2986 RMK AO2 T00091038
KEIK 181615Z AUTO 22004KT 10SM CLR 01/M04 A2985 RMK AO2 T00101042
KEIK 181555Z AUTO 00000KT 10SM CLR 00/M04 A2984 RMK AO2 T00001037
KEIK 181535Z AUTO 19003KT 10SM CLR 00/M04 A2984 RMK AO2 T00001040
KEIK 181515Z AUTO 20003KT 10SM CLR 00/M04 A2984 RMK AO2 T10051038
KEIK 181455Z AUTO 00000KT 10SM CLR 00/M04 A2984 RMK AO2 T10051040
KEIK 181435Z AUTO 23005KT 10SM CLR M01/M04 A2983 RMK AO2 T10101040
KEIK 181415Z AUTO 00000KT 10SM CLR M01/M04 A2983 RMK AO2 T10121041